sensor_id;sensor_type;location;lat;lon;timestamp;pressure;altitude;pressure_sealevel;temperature
14023;BMP180;7086;48.116;11.580;2023-09-19T00:01:39;95038.00;;;21.20
14023;BMP180;7086;48.116;11.580;2023-09-19T00:04:08;95020.00;;;21.40
14023;BMP180;7086;48.116;11.580;2023-09-19T00:06:35;95031.00;;;21.30
14023;BMP180;7086;48.116;11.580;2023-09-19T00:09:02;95024.00;;;21.40
14023;BMP180;7086;48.116;11.580;2023-09-19T00:11:29;95008.00;;;21.40
14023;BMP180;7086;48.116;11.580;2023-09-19T00:13:56;94990.00;;;21.50
14023;BMP180;7086;48.116;11.580;2023-09-19T00:16:25;95011.00;;;21.40
14023;BMP180;7086;48.116;11.580;2023-09-19T00:18:52;95012.00;;;21.60
14023;BMP180;7086;48.116;11.580;2023-09-19T00:21:21;95004.00;;;21.60
14023;BMP180;7086;48.116;11.580;2023-09-19T00:23:47;95037.00;;;21.60
14023;BMP180;7086;48.116;11.580;2023-09-19T00:26:14;95008.00;;;21.60
14023;BMP180;7086;48.116;11.580;2023-09-19T00:28:43;95047.00;;;21.70
14023;BMP180;7086;48.116;11.580;2023-09-19T00:31:10;95019.00;;;21.70
14023;BMP180;7086;48.116;11.580;2023-09-19T00:33:37;95014.00;;;21.80
14023;BMP180;7086;48.116;11.580;2023-09-19T00:36:04;95050.00;;;21.80
14023;BMP180;7086;48.116;11.580;2023-09-19T00:38:32;95037.00;;;21.80
14023;BMP180;7086;48.116;11.580;2023-09-19T00:40:59;95037.00;;;21.80
14023;BMP180;7086;48.116;11.580;2023-09-19T00:43:26;95044.00;;;21.70
14023;BMP180;7086;48.116;11.580;2023-09-19T00:45:55;95042.00;;;21.70
14023;BMP180;7086;48.116;11.580;2023-09-19T00:48:22;95023.00;;;21.60
14023;BMP180;7086;48.116;11.580;2023-09-19T00:50:50;95030.00;;;21.70
14023;BMP180;7086;48.116;11.580;2023-09-19T00:53:21;95044.00;;;21.80
14023;BMP180;7086;48.116;11.580;2023-09-19T00:55:52;95040.00;;;21.60
14023;BMP180;7086;48.116;11.580;2023-09-19T00:58:19;95045.00;;;21.70
14023;BMP180;7086;48.116;11.580;2023-09-19T01:00:47;95046.00;;;21.80
14023;BMP180;7086;48.116;11.580;2023-09-19T01:03:14;95059.00;;;21.80
14023;BMP180;7086;48.116;11.580;2023-09-19T01:05:41;95063.00;;;21.70
14023;BMP180;7086;48.116;11.580;2023-09-19T01:08:09;95069.00;;;21.70
14023;BMP180;7086;48.116;11.580;2023-09-19T01:10:41;95071.00;;;21.70
14023;BMP180;7086;48.116;11.580;2023-09-19T01:13:18;95090.00;;;21.70
14023;BMP180;7086;48.116;11.580;2023-09-19T01:15:54;95055.00;;;21.70
14023;BMP180;7086;48.116;11.580;2023-09-19T01:18:40;95048.00;;;21.70
14023;BMP180;7086;48.116;11.580;2023-09-19T01:21:15;95063.00;;;21.70
14023;BMP180;7086;48.116;11.580;2023-09-19T01:24:18;95069.00;;;21.70
14023;BMP180;7086;48.116;11.580;2023-09-19T01:29:45;95079.00;;;21.60
14023;BMP180;7086;48.116;11.580;2023-09-19T01:32:17;95089.00;;;21.60
14023;BMP180;7086;48.116;11.580;2023-09-19T01:34:47;95088.00;;;21.60
14023;BMP180;7086;48.116;11.580;2023-09-19T01:37:16;95092.00;;;21.60
14023;BMP180;7086;48.116;11.580;2023-09-19T01:39:46;95090.00;;;21.60
14023;BMP180;7086;48.116;11.580;2023-09-19T01:42:23;95102.00;;;21.60
14023;BMP180;7086;48.116;11.580;2023-09-19T01:44:57;95114.00;;;21.60
14023;BMP180;7086;48.116;11.580;2023-09-19T01:47:32;95102.00;;;21.60
14023;BMP180;7086;48.116;11.580;2023-09-19T01:50:07;95069.00;;;21.60
14023;BMP180;7086;48.116;11.580;2023-09-19T01:52:47;95107.00;;;21.60
14023;BMP180;7086;48.116;11.580;2023-09-19T01:55:16;95111.00;;;21.60
14023;BMP180;7086;48.116;11.580;2023-09-19T01:57:49;95103.00;;;21.60
14023;BMP180;7086;48.116;11.580;2023-09-19T02:00:20;95041.00;;;21.70
14023;BMP180;7086;48.116;11.580;2023-09-19T02:02:51;95109.00;;;21.70
14023;BMP180;7086;48.116;11.580;2023-09-19T02:05:23;95090.00;;;21.50
14023;BMP180;7086;48.116;11.580;2023-09-19T02:07:51;95099.00;;;21.70
14023;BMP180;7086;48.116;11.580;2023-09-19T02:10:19;95109.00;;;21.70
14023;BMP180;7086;48.116;11.580;2023-09-19T02:12:46;95089.00;;;21.80
14023;BMP180;7086;48.116;11.580;2023-09-19T02:15:14;95109.00;;;21.80
14023;BMP180;7086;48.116;11.580;2023-09-19T02:17:41;95091.00;;;21.80
14023;BMP180;7086;48.116;11.580;2023-09-19T02:20:11;95096.00;;;21.70
14023;BMP180;7086;48.116;11.580;2023-09-19T02:22:40;95075.00;;;21.80
14023;BMP180;7086;48.116;11.580;2023-09-19T02:25:07;95068.00;;;21.80
14023;BMP180;7086;48.116;11.580;2023-09-19T02:27:34;95070.00;;;21.80
14023;BMP180;7086;48.116;11.580;2023-09-19T02:30:02;95098.00;;;21.80
14023;BMP180;7086;48.116;11.580;2023-09-19T02:32:29;95086.00;;;21.80
14023;BMP180;7086;48.116;11.580;2023-09-19T02:34:56;95105.00;;;21.80
14023;BMP180;7086;48.116;11.580;2023-09-19T02:37:25;95093.00;;;21.80
14023;BMP180;7086;48.116;11.580;2023-09-19T02:39:52;95098.00;;;21.80
14023;BMP180;7086;48.116;11.580;2023-09-19T02:42:19;95099.00;;;21.80
14023;BMP180;7086;48.116;11.580;2023-09-19T02:44:46;95079.00;;;21.70
14023;BMP180;7086;48.116;11.580;2023-09-19T02:47:13;95105.00;;;21.70
14023;BMP180;7086;48.116;11.580;2023-09-19T02:49:42;95101.00;;;21.70
14023;BMP180;7086;48.116;11.580;2023-09-19T02:52:09;95100.00;;;21.70
14023;BMP180;7086;48.116;11.580;2023-09-19T02:54:38;95112.00;;;21.70
14023;BMP180;7086;48.116;11.580;2023-09-19T02:57:04;95122.00;;;21.70
14023;BMP180;7086;48.116;11.580;2023-09-19T02:59:33;95118.00;;;21.70
14023;BMP180;7086;48.116;11.580;2023-09-19T03:02:02;95092.00;;;21.70
14023;BMP180;7086;48.116;11.580;2023-09-19T03:04:30;95110.00;;;21.60
14023;BMP180;7086;48.116;11.580;2023-09-19T03:06:58;95086.00;;;21.60
14023;BMP180;7086;48.116;11.580;2023-09-19T03:09:26;95108.00;;;21.70
14023;BMP180;7086;48.116;11.580;2023-09-19T03:11:54;95105.00;;;21.60
14023;BMP180;7086;48.116;11.580;2023-09-19T03:14:21;95077.00;;;21.60
14023;BMP180;7086;48.116;11.580;2023-09-19T03:16:49;95107.00;;;21.60
14023;BMP180;7086;48.116;11.580;2023-09-19T03:19:16;95086.00;;;21.60
14023;BMP180;7086;48.116;11.580;2023-09-19T03:21:42;95057.00;;;21.60
14023;BMP180;7086;48.116;11.580;2023-09-19T03:24:09;95113.00;;;21.60
14023;BMP180;7086;48.116;11.580;2023-09-19T03:26:37;95085.00;;;21.50
14023;BMP180;7086;48.116;11.580;2023-09-19T03:29:05;95028.00;;;21.50
14023;BMP180;7086;48.116;11.580;2023-09-19T03:31:33;95122.00;;;21.50
14023;BMP180;7086;48.116;11.580;2023-09-19T03:34:02;95132.00;;;21.50
14023;BMP180;7086;48.116;11.580;2023-09-19T03:36:30;95080.00;;;21.40
14023;BMP180;7086;48.116;11.580;2023-09-19T03:38:57;95080.00;;;21.40
14023;BMP180;7086;48.116;11.580;2023-09-19T03:41:24;95092.00;;;21.20
14023;BMP180;7086;48.116;11.580;2023-09-19T03:43:50;95131.00;;;21.40
14023;BMP180;7086;48.116;11.580;2023-09-19T03:46:19;95114.00;;;21.40
14023;BMP180;7086;48.116;11.580;2023-09-19T03:48:46;95116.00;;;21.40
14023;BMP180;7086;48.116;11.580;2023-09-19T03:51:13;95117.00;;;21.40
14023;BMP180;7086;48.116;11.580;2023-09-19T03:53:41;95142.00;;;21.40
14023;BMP180;7086;48.116;11.580;2023-09-19T03:56:06;95081.00;;;21.40
14023;BMP180;7086;48.116;11.580;2023-09-19T03:58:34;95107.00;;;21.30
14023;BMP180;7086;48.116;11.580;2023-09-19T04:01:05;95099.00;;;21.30
14023;BMP180;7086;48.116;11.580;2023-09-19T04:03:33;95122.00;;;21.40
14023;BMP180;7086;48.116;11.580;2023-09-19T04:06:11;95131.00;;;21.40
14023;BMP180;7086;48.116;11.580;2023-09-19T04:08:38;95126.00;;;21.50
14023;BMP180;7086;48.116;11.580;2023-09-19T04:11:05;95126.00;;;21.50
14023;BMP180;7086;48.116;11.580;2023-09-19T04:13:32;95127.00;;;21.50
14023;BMP180;7086;48.116;11.580;2023-09-19T04:15:59;95105.00;;;21.50
14023;BMP180;7086;48.116;11.580;2023-09-19T04:18:26;95131.00;;;21.50
14023;BMP180;7086;48.116;11.580;2023-09-19T04:20:54;95129.00;;;21.50
14023;BMP180;7086;48.116;11.580;2023-09-19T04:23:21;95134.00;;;21.60
14023;BMP180;7086;48.116;11.580;2023-09-19T04:25:48;95137.00;;;21.60
14023;BMP180;7086;48.116;11.580;2023-09-19T04:28:16;95140.00;;;21.60
14023;BMP180;7086;48.116;11.580;2023-09-19T04:30:43;95132.00;;;21.60
14023;BMP180;7086;48.116;11.580;2023-09-19T04:33:10;95150.00;;;21.60
14023;BMP180;7086;48.116;11.580;2023-09-19T04:35:37;95103.00;;;21.60
14023;BMP180;7086;48.116;11.580;2023-09-19T04:38:05;95154.00;;;21.60
14023;BMP180;7086;48.116;11.580;2023-09-19T04:40:32;95163.00;;;21.60
14023;BMP180;7086;48.116;11.580;2023-09-19T04:42:59;95168.00;;;21.60
14023;BMP180;7086;48.116;11.580;2023-09-19T04:45:27;95132.00;;;21.60
14023;BMP180;7086;48.116;11.580;2023-09-19T04:47:54;95162.00;;;21.60
14023;BMP180;7086;48.116;11.580;2023-09-19T04:50:21;95166.00;;;21.70
14023;BMP180;7086;48.116;11.580;2023-09-19T04:52:50;95163.00;;;21.70
14023;BMP180;7086;48.116;11.580;2023-09-19T04:55:19;95141.00;;;21.70
14023;BMP180;7086;48.116;11.580;2023-09-19T04:57:46;95172.00;;;21.70
14023;BMP180;7086;48.116;11.580;2023-09-19T05:00:14;95171.00;;;21.70
14023;BMP180;7086;48.116;11.580;2023-09-19T05:02:42;95176.00;;;21.70
14023;BMP180;7086;48.116;11.580;2023-09-19T05:05:10;95176.00;;;21.70
14023;BMP180;7086;48.116;11.580;2023-09-19T05:07:39;95184.00;;;21.70
14023;BMP180;7086;48.116;11.580;2023-09-19T05:10:06;95178.00;;;21.70
14023;BMP180;7086;48.116;11.580;2023-09-19T05:12:35;95201.00;;;21.70
14023;BMP180;7086;48.116;11.580;2023-09-19T05:15:02;95196.00;;;21.70
14023;BMP180;7086;48.116;11.580;2023-09-19T05:17:30;95204.00;;;21.70
14023;BMP180;7086;48.116;11.580;2023-09-19T05:19:56;95202.00;;;21.70
14023;BMP180;7086;48.116;11.580;2023-09-19T05:22:26;95178.00;;;21.80
14023;BMP180;7086;48.116;11.580;2023-09-19T05:24:53;95212.00;;;21.80
14023;BMP180;7086;48.116;11.580;2023-09-19T05:27:20;95215.00;;;21.80
14023;BMP180;7086;48.116;11.580;2023-09-19T05:29:49;95219.00;;;21.80
14023;BMP180;7086;48.116;11.580;2023-09-19T05:32:18;95214.00;;;21.80
14023;BMP180;7086;48.116;11.580;2023-09-19T05:34:46;95218.00;;;21.90
14023;BMP180;7086;48.116;11.580;2023-09-19T05:37:13;95204.00;;;21.90
14023;BMP180;7086;48.116;11.580;2023-09-19T05:39:42;95229.00;;;21.90
14023;BMP180;7086;48.116;11.580;2023-09-19T05:42:09;95221.00;;;22.00
14023;BMP180;7086;48.116;11.580;2023-09-19T05:44:36;95226.00;;;22.00
14023;BMP180;7086;48.116;11.580;2023-09-19T05:47:04;95220.00;;;22.00
14023;BMP180;7086;48.116;11.580;2023-09-19T05:49:34;95223.00;;;22.10
14023;BMP180;7086;48.116;11.580;2023-09-19T05:52:04;95234.00;;;22.10
14023;BMP180;7086;48.116;11.580;2023-09-19T05:54:31;95238.00;;;22.10
14023;BMP180;7086;48.116;11.580;2023-09-19T05:56:58;95217.00;;;22.10
14023;BMP180;7086;48.116;11.580;2023-09-19T05:59:25;95219.00;;;22.10
14023;BMP180;7086;48.116;11.580;2023-09-19T06:01:52;95243.00;;;22.10
14023;BMP180;7086;48.116;11.580;2023-09-19T06:04:20;95246.00;;;22.20
14023;BMP180;7086;48.116;11.580;2023-09-19T06:06:47;95248.00;;;22.20
14023;BMP180;7086;48.116;11.580;2023-09-19T06:09:14;95242.00;;;22.30
14023;BMP180;7086;48.116;11.580;2023-09-19T06:11:41;95248.00;;;22.40
14023;BMP180;7086;48.116;11.580;2023-09-19T06:14:08;95236.00;;;22.40
14023;BMP180;7086;48.116;11.580;2023-09-19T06:16:35;95264.00;;;22.50
14023;BMP180;7086;48.116;11.580;2023-09-19T06:19:03;95259.00;;;22.60
14023;BMP180;7086;48.116;11.580;2023-09-19T06:21:33;95258.00;;;22.80
14023;BMP180;7086;48.116;11.580;2023-09-19T06:24:00;95259.00;;;22.90
14023;BMP180;7086;48.116;11.580;2023-09-19T06:26:27;95266.00;;;23.00
14023;BMP180;7086;48.116;11.580;2023-09-19T06:28:54;95260.00;;;23.10
14023;BMP180;7086;48.116;11.580;2023-09-19T06:31:21;95267.00;;;23.30
14023;BMP180;7086;48.116;11.580;2023-09-19T06:33:51;95260.00;;;23.40
14023;BMP180;7086;48.116;11.580;2023-09-19T06:36:18;95265.00;;;23.50
14023;BMP180;7086;48.116;11.580;2023-09-19T06:38:47;95269.00;;;23.60
14023;BMP180;7086;48.116;11.580;2023-09-19T06:41:14;95245.00;;;23.70
14023;BMP180;7086;48.116;11.580;2023-09-19T06:43:42;95257.00;;;23.80
14023;BMP180;7086;48.116;11.580;2023-09-19T06:46:09;95274.00;;;23.80
14023;BMP180;7086;48.116;11.580;2023-09-19T06:48:37;95270.00;;;23.90
14023;BMP180;7086;48.116;11.580;2023-09-19T06:51:03;95281.00;;;23.90
14023;BMP180;7086;48.116;11.580;2023-09-19T06:53:31;95281.00;;;24.00
14023;BMP180;7086;48.116;11.580;2023-09-19T06:55:59;95277.00;;;24.00
14023;BMP180;7086;48.116;11.580;2023-09-19T06:58:26;95285.00;;;24.00
14023;BMP180;7086;48.116;11.580;2023-09-19T07:00:53;95282.00;;;24.00
14023;BMP180;7086;48.116;11.580;2023-09-19T07:03:20;95283.00;;;24.00
14023;BMP180;7086;48.116;11.580;2023-09-19T07:05:50;95274.00;;;24.00
14023;BMP180;7086;48.116;11.580;2023-09-19T07:08:18;95282.00;;;24.10
14023;BMP180;7086;48.116;11.580;2023-09-19T07:10:45;95292.00;;;24.20
14023;BMP180;7086;48.116;11.580;2023-09-19T07:13:15;95281.00;;;24.30
14023;BMP180;7086;48.116;11.580;2023-09-19T07:15:43;95293.00;;;24.30
14023;BMP180;7086;48.116;11.580;2023-09-19T07:18:13;95288.00;;;24.30
14023;BMP180;7086;48.116;11.580;2023-09-19T07:20:42;95294.00;;;24.30
14023;BMP180;7086;48.116;11.580;2023-09-19T07:23:14;95308.00;;;24.30
14023;BMP180;7086;48.116;11.580;2023-09-19T07:25:41;95284.00;;;24.30
14023;BMP180;7086;48.116;11.580;2023-09-19T07:28:08;95292.00;;;24.40
14023;BMP180;7086;48.116;11.580;2023-09-19T07:30:37;95297.00;;;24.40
14023;BMP180;7086;48.116;11.580;2023-09-19T07:33:04;95293.00;;;24.50
14023;BMP180;7086;48.116;11.580;2023-09-19T07:35:32;95309.00;;;24.60
14023;BMP180;7086;48.116;11.580;2023-09-19T07:37:59;95302.00;;;24.70
14023;BMP180;7086;48.116;11.580;2023-09-19T07:40:31;95302.00;;;25.00
14023;BMP180;7086;48.116;11.580;2023-09-19T07:42:58;95289.00;;;25.30
14023;BMP180;7086;48.116;11.580;2023-09-19T07:45:27;95308.00;;;25.50
14023;BMP180;7086;48.116;11.580;2023-09-19T07:47:57;95280.00;;;25.80
14023;BMP180;7086;48.116;11.580;2023-09-19T07:50:23;95238.00;;;26.00
14023;BMP180;7086;48.116;11.580;2023-09-19T07:52:53;95238.00;;;26.20
14023;BMP180;7086;48.116;11.580;2023-09-19T07:55:21;95315.00;;;26.60
14023;BMP180;7086;48.116;11.580;2023-09-19T07:57:50;95293.00;;;26.90
14023;BMP180;7086;48.116;11.580;2023-09-19T08:00:17;95295.00;;;27.10
14023;BMP180;7086;48.116;11.580;2023-09-19T08:02:45;95308.00;;;27.30
14023;BMP180;7086;48.116;11.580;2023-09-19T08:05:14;95311.00;;;27.50
14023;BMP180;7086;48.116;11.580;2023-09-19T08:07:43;95320.00;;;27.70
14023;BMP180;7086;48.116;11.580;2023-09-19T08:10:14;95293.00;;;27.80
14023;BMP180;7086;48.116;11.580;2023-09-19T08:12:43;95321.00;;;27.90
14023;BMP180;7086;48.116;11.580;2023-09-19T08:15:13;95319.00;;;28.00
14023;BMP180;7086;48.116;11.580;2023-09-19T08:17:40;95321.00;;;28.10
14023;BMP180;7086;48.116;11.580;2023-09-19T08:20:08;95317.00;;;28.30
14023;BMP180;7086;48.116;11.580;2023-09-19T08:22:46;95323.00;;;28.60
14023;BMP180;7086;48.116;11.580;2023-09-19T08:25:14;95319.00;;;29.00
14023;BMP180;7086;48.116;11.580;2023-09-19T08:27:43;95319.00;;;29.40
14023;BMP180;7086;48.116;11.580;2023-09-19T08:30:13;95290.00;;;29.80
14023;BMP180;7086;48.116;11.580;2023-09-19T08:32:40;95323.00;;;30.00
14023;BMP180;7086;48.116;11.580;2023-09-19T08:35:08;95326.00;;;30.20
14023;BMP180;7086;48.116;11.580;2023-09-19T08:37:36;95319.00;;;30.50
14023;BMP180;7086;48.116;11.580;2023-09-19T08:40:04;95301.00;;;30.90
14023;BMP180;7086;48.116;11.580;2023-09-19T08:42:47;95320.00;;;31.30
14023;BMP180;7086;48.116;11.580;2023-09-19T08:45:14;95309.00;;;31.60
14023;BMP180;7086;48.116;11.580;2023-09-19T08:47:46;95328.00;;;31.90
14023;BMP180;7086;48.116;11.580;2023-09-19T08:50:19;95324.00;;;32.30
14023;BMP180;7086;48.116;11.580;2023-09-19T08:52:51;95332.00;;;32.60
14023;BMP180;7086;48.116;11.580;2023-09-19T08:55:23;95337.00;;;32.70
14023;BMP180;7086;48.116;11.580;2023-09-19T08:58:00;95329.00;;;32.90
14023;BMP180;7086;48.116;11.580;2023-09-19T09:00:27;95323.00;;;33.10
14023;BMP180;7086;48.116;11.580;2023-09-19T09:02:55;95333.00;;;33.10
14023;BMP180;7086;48.116;11.580;2023-09-19T09:05:23;95331.00;;;33.00
14023;BMP180;7086;48.116;11.580;2023-09-19T09:07:51;95335.00;;;32.80
14023;BMP180;7086;48.116;11.580;2023-09-19T09:10:21;95334.00;;;32.60
14023;BMP180;7086;48.116;11.580;2023-09-19T09:12:48;95342.00;;;32.40
14023;BMP180;7086;48.116;11.580;2023-09-19T09:15:18;95346.00;;;32.00
14023;BMP180;7086;48.116;11.580;2023-09-19T09:17:47;95352.00;;;31.70
14023;BMP180;7086;48.116;11.580;2023-09-19T09:20:16;95337.00;;;31.30
14023;BMP180;7086;48.116;11.580;2023-09-19T09:22:50;95343.00;;;30.90
14023;BMP180;7086;48.116;11.580;2023-09-19T09:25:18;95358.00;;;30.50
14023;BMP180;7086;48.116;11.580;2023-09-19T09:28:00;95350.00;;;30.00
14023;BMP180;7086;48.116;11.580;2023-09-19T09:30:34;95335.00;;;29.70
14023;BMP180;7086;48.116;11.580;2023-09-19T09:33:08;95337.00;;;29.60
14023;BMP180;7086;48.116;11.580;2023-09-19T09:35:36;95350.00;;;29.80
14023;BMP180;7086;48.116;11.580;2023-09-19T09:38:06;95338.00;;;30.20
14023;BMP180;7086;48.116;11.580;2023-09-19T09:40:46;95338.00;;;30.70
14023;BMP180;7086;48.116;11.580;2023-09-19T09:43:26;95344.00;;;31.20
14023;BMP180;7086;48.116;11.580;2023-09-19T09:46:21;95336.00;;;31.70
14023;BMP180;7086;48.116;11.580;2023-09-19T09:49:05;95318.00;;;32.00
14023;BMP180;7086;48.116;11.580;2023-09-19T09:51:45;95349.00;;;32.40
14023;BMP180;7086;48.116;11.580;2023-09-19T09:54:15;95351.00;;;32.70
14023;BMP180;7086;48.116;11.580;2023-09-19T09:56:56;95336.00;;;32.70
14023;BMP180;7086;48.116;11.580;2023-09-19T09:59:54;95345.00;;;32.40
14023;BMP180;7086;48.116;11.580;2023-09-19T10:02:26;95353.00;;;32.30
14023;BMP180;7086;48.116;11.580;2023-09-19T10:04:55;95354.00;;;32.40
14023;BMP180;7086;48.116;11.580;2023-09-19T10:07:40;95351.00;;;32.80
14023;BMP180;7086;48.116;11.580;2023-09-19T10:10:13;95351.00;;;33.00
14023;BMP180;7086;48.116;11.580;2023-09-19T10:12:47;95349.00;;;33.20
14023;BMP180;7086;48.116;11.580;2023-09-19T10:15:17;95349.00;;;33.30
14023;BMP180;7086;48.116;11.580;2023-09-19T10:17:46;95344.00;;;33.30
14023;BMP180;7086;48.116;11.580;2023-09-19T10:20:14;95315.00;;;33.20
14023;BMP180;7086;48.116;11.580;2023-09-19T10:23:05;95354.00;;;33.10
14023;BMP180;7086;48.116;11.580;2023-09-19T10:25:39;95358.00;;;33.20
14023;BMP180;7086;48.116;11.580;2023-09-19T10:28:07;95353.00;;;33.40
14023;BMP180;7086;48.116;11.580;2023-09-19T10:30:38;95348.00;;;33.80
14023;BMP180;7086;48.116;11.580;2023-09-19T10:33:10;95347.00;;;34.20
14023;BMP180;7086;48.116;11.580;2023-09-19T10:35:38;95345.00;;;34.50
14023;BMP180;7086;48.116;11.580;2023-09-19T10:38:06;95351.00;;;34.70
14023;BMP180;7086;48.116;11.580;2023-09-19T10:40:35;95356.00;;;35.00
14023;BMP180;7086;48.116;11.580;2023-09-19T10:43:06;95365.00;;;35.20
14023;BMP180;7086;48.116;11.580;2023-09-19T10:45:35;95363.00;;;35.30
14023;BMP180;7086;48.116;11.580;2023-09-19T10:48:06;95363.00;;;35.20
14023;BMP180;7086;48.116;11.580;2023-09-19T10:50:36;95370.00;;;35.10
14023;BMP180;7086;48.116;11.580;2023-09-19T10:53:05;95369.00;;;35.10
14023;BMP180;7086;48.116;11.580;2023-09-19T10:55:34;95356.00;;;35.20
14023;BMP180;7086;48.116;11.580;2023-09-19T10:58:02;95351.00;;;35.20
14023;BMP180;7086;48.116;11.580;2023-09-19T11:00:51;95360.00;;;35.30
14023;BMP180;7086;48.116;11.580;2023-09-19T11:03:21;95358.00;;;35.40
14023;BMP180;7086;48.116;11.580;2023-09-19T11:06:05;95372.00;;;35.50
14023;BMP180;7086;48.116;11.580;2023-09-19T11:09:00;95358.00;;;35.60
14023;BMP180;7086;48.116;11.580;2023-09-19T11:11:46;95362.00;;;35.70
14023;BMP180;7086;48.116;11.580;2023-09-19T11:14:29;95366.00;;;35.70
14023;BMP180;7086;48.116;11.580;2023-09-19T11:20:22;95361.00;;;34.60
14023;BMP180;7086;48.116;11.580;2023-09-19T11:23:22;95366.00;;;33.90
14023;BMP180;7086;48.116;11.580;2023-09-19T11:25:52;95354.00;;;33.50
14023;BMP180;7086;48.116;11.580;2023-09-19T11:28:30;95348.00;;;33.30
14023;BMP180;7086;48.116;11.580;2023-09-19T11:30:57;95363.00;;;33.50
14023;BMP180;7086;48.116;11.580;2023-09-19T11:33:25;95347.00;;;33.80
14023;BMP180;7086;48.116;11.580;2023-09-19T11:36:02;95350.00;;;34.20
14023;BMP180;7086;48.116;11.580;2023-09-19T11:39:00;95356.00;;;34.60
14023;BMP180;7086;48.116;11.580;2023-09-19T11:41:38;95361.00;;;34.70
14023;BMP180;7086;48.116;11.580;2023-09-19T11:44:33;95360.00;;;34.60
14023;BMP180;7086;48.116;11.580;2023-09-19T11:47:04;95359.00;;;34.20
14023;BMP180;7086;48.116;11.580;2023-09-19T11:49:32;95363.00;;;33.80
14023;BMP180;7086;48.116;11.580;2023-09-19T11:52:01;95345.00;;;33.40
14023;BMP180;7086;48.116;11.580;2023-09-19T11:54:31;95344.00;;;32.90
14023;BMP180;7086;48.116;11.580;2023-09-19T11:56:59;95357.00;;;32.40
14023;BMP180;7086;48.116;11.580;2023-09-19T11:59:28;95361.00;;;31.90
14023;BMP180;7086;48.116;11.580;2023-09-19T12:01:56;95360.00;;;31.60
14023;BMP180;7086;48.116;11.580;2023-09-19T12:04:35;95345.00;;;31.30
14023;BMP180;7086;48.116;11.580;2023-09-19T12:07:06;95341.00;;;31.10
14023;BMP180;7086;48.116;11.580;2023-09-19T12:09:39;95336.00;;;30.90
14023;BMP180;7086;48.116;11.580;2023-09-19T12:12:09;95349.00;;;30.70
14023;BMP180;7086;48.116;11.580;2023-09-19T12:14:38;95348.00;;;30.60
14023;BMP180;7086;48.116;11.580;2023-09-19T12:17:07;95351.00;;;30.40
14023;BMP180;7086;48.116;11.580;2023-09-19T12:19:34;95329.00;;;30.30
14023;BMP180;7086;48.116;11.580;2023-09-19T12:22:02;95343.00;;;30.20
14023;BMP180;7086;48.116;11.580;2023-09-19T12:24:32;95354.00;;;30.10
14023;BMP180;7086;48.116;11.580;2023-09-19T12:27:05;95342.00;;;30.10
14023;BMP180;7086;48.116;11.580;2023-09-19T12:29:42;95352.00;;;30.00
14023;BMP180;7086;48.116;11.580;2023-09-19T12:32:10;95333.00;;;29.90
14023;BMP180;7086;48.116;11.580;2023-09-19T12:34:37;95359.00;;;29.80
14023;BMP180;7086;48.116;11.580;2023-09-19T12:37:09;95335.00;;;29.70
14023;BMP180;7086;48.116;11.580;2023-09-19T12:39:44;95341.00;;;29.60
14023;BMP180;7086;48.116;11.580;2023-09-19T12:42:15;95335.00;;;29.60
14023;BMP180;7086;48.116;11.580;2023-09-19T12:44:43;95340.00;;;29.50
14023;BMP180;7086;48.116;11.580;2023-09-19T12:47:11;95340.00;;;29.50
14023;BMP180;7086;48.116;11.580;2023-09-19T12:50:09;95343.00;;;29.50
14023;BMP180;7086;48.116;11.580;2023-09-19T12:52:41;95332.00;;;29.50
14023;BMP180;7086;48.116;11.580;2023-09-19T12:55:22;95325.00;;;29.60
14023;BMP180;7086;48.116;11.580;2023-09-19T12:58:11;95338.00;;;29.60
14023;BMP180;7086;48.116;11.580;2023-09-19T13:00:42;95318.00;;;29.50
14023;BMP180;7086;48.116;11.580;2023-09-19T13:03:18;95338.00;;;29.60
14023;BMP180;7086;48.116;11.580;2023-09-19T13:05:52;95319.00;;;29.70
14023;BMP180;7086;48.116;11.580;2023-09-19T13:08:22;95325.00;;;29.70
14023;BMP180;7086;48.116;11.580;2023-09-19T13:11:09;95298.00;;;29.70
14023;BMP180;7086;48.116;11.580;2023-09-19T13:13:42;95293.00;;;29.70
14023;BMP180;7086;48.116;11.580;2023-09-19T13:16:09;95318.00;;;29.70
14023;BMP180;7086;48.116;11.580;2023-09-19T13:18:44;95316.00;;;29.70
14023;BMP180;7086;48.116;11.580;2023-09-19T13:21:12;95317.00;;;29.70
14023;BMP180;7086;48.116;11.580;2023-09-19T13:23:49;95308.00;;;29.60
14023;BMP180;7086;48.116;11.580;2023-09-19T13:26:18;95302.00;;;29.60
14023;BMP180;7086;48.116;11.580;2023-09-19T13:28:45;95310.00;;;29.50
14023;BMP180;7086;48.116;11.580;2023-09-19T13:31:13;95300.00;;;29.50
14023;BMP180;7086;48.116;11.580;2023-09-19T13:33:44;95302.00;;;29.50
14023;BMP180;7086;48.116;11.580;2023-09-19T13:36:12;95306.00;;;29.50
14023;BMP180;7086;48.116;11.580;2023-09-19T13:38:39;95297.00;;;29.50
14023;BMP180;7086;48.116;11.580;2023-09-19T13:41:09;95305.00;;;29.50
14023;BMP180;7086;48.116;11.580;2023-09-19T13:43:38;95289.00;;;29.50
14023;BMP180;7086;48.116;11.580;2023-09-19T13:46:05;95307.00;;;29.50
14023;BMP180;7086;48.116;11.580;2023-09-19T13:48:33;95306.00;;;29.50
14023;BMP180;7086;48.116;11.580;2023-09-19T13:51:01;95301.00;;;29.50
14023;BMP180;7086;48.116;11.580;2023-09-19T13:53:28;95301.00;;;29.40
14023;BMP180;7086;48.116;11.580;2023-09-19T13:55:55;95304.00;;;29.40
14023;BMP180;7086;48.116;11.580;2023-09-19T13:58:23;95282.00;;;29.40
14023;BMP180;7086;48.116;11.580;2023-09-19T14:00:51;95294.00;;;29.40
14023;BMP180;7086;48.116;11.580;2023-09-19T14:03:20;95295.00;;;29.40
14023;BMP180;7086;48.116;11.580;2023-09-19T14:05:47;95288.00;;;29.40
14023;BMP180;7086;48.116;11.580;2023-09-19T14:08:17;95289.00;;;29.40
14023;BMP180;7086;48.116;11.580;2023-09-19T14:10:44;95290.00;;;29.40
14023;BMP180;7086;48.116;11.580;2023-09-19T14:13:11;95269.00;;;29.40
14023;BMP180;7086;48.116;11.580;2023-09-19T14:15:39;95293.00;;;29.40
14023;BMP180;7086;48.116;11.580;2023-09-19T14:18:07;95288.00;;;29.30
14023;BMP180;7086;48.116;11.580;2023-09-19T14:20:38;95302.00;;;29.20
14023;BMP180;7086;48.116;11.580;2023-09-19T14:23:05;95287.00;;;29.10
14023;BMP180;7086;48.116;11.580;2023-09-19T14:25:37;95294.00;;;29.10
14023;BMP180;7086;48.116;11.580;2023-09-19T14:28:05;95274.00;;;29.00
14023;BMP180;7086;48.116;11.580;2023-09-19T14:30:33;95266.00;;;29.00
14023;BMP180;7086;48.116;11.580;2023-09-19T14:33:00;95277.00;;;28.90